createdAt,value
2023-01-27T00:02:05.420Z,95712.38
2023-01-27T00:07:06.936Z,95716.91
2023-01-27T00:12:19.296Z,95706.63
2023-01-27T00:17:20.821Z,95711.66
2023-01-27T00:22:22.268Z,95713.13
2023-01-27T00:27:23.801Z,95704.44
2023-01-27T00:32:25.307Z,95700.88
2023-01-27T00:37:26.833Z,95700.56
2023-01-27T00:42:28.274Z,95697.63
2023-01-27T00:47:29.740Z,95694.59
2023-01-27T00:52:31.250Z,95694.28
2023-01-27T00:57:32.758Z,95694.06
2023-01-27T01:02:34.226Z,95696.91
2023-01-27T01:07:36.281Z,95694.56
2023-01-27T01:12:37.780Z,95690.63
2023-01-27T01:17:39.227Z,95693.22
2023-01-27T01:22:40.770Z,95694.50
2023-01-27T01:27:44.751Z,95692.56
2023-01-27T01:32:46.251Z,95695.97
2023-01-27T01:37:48.268Z,95697.63
2023-01-27T01:43:01.105Z,95693.84
2023-01-27T01:48:05.229Z,95682.97
2023-01-27T01:53:08.457Z,95676.59
2023-01-27T01:58:12.670Z,95672.47
2023-01-27T02:03:14.758Z,95667.16
2023-01-27T02:08:28.229Z,95657.63
2023-01-27T02:13:29.739Z,95654.25
2023-01-27T02:18:32.332Z,95651.63
2023-01-27T02:23:55.375Z,95652.25
2023-01-27T02:29:11.288Z,95653.50
2023-01-27T02:34:16.655Z,95652.56
2023-01-27T02:39:22.151Z,95658.78
2023-01-27T02:44:23.881Z,95652.19
2023-01-27T02:49:25.493Z,95644.41
2023-01-27T02:54:29.614Z,95644.94
2023-01-27T02:59:31.820Z,95639.47
2023-01-27T03:04:33.473Z,95640.34
2023-01-27T03:09:35.025Z,95632.75
2023-01-27T03:14:36.498Z,95631.53
2023-01-27T03:19:37.986Z,95627.81
2023-01-27T03:24:39.689Z,95630.09
2023-01-27T03:29:41.577Z,95631.00
2023-01-27T03:34:43.154Z,95626.94
2023-01-27T03:39:52.859Z,95638.38
2023-01-27T03:44:54.360Z,95641.28
2023-01-27T03:49:55.796Z,95640.56
2023-01-27T03:54:57.240Z,95641.28
2023-01-27T03:59:58.778Z,95645.44
2023-01-27T04:05:00.241Z,95643.59
2023-01-27T04:10:02.705Z,95640.63
2023-01-27T04:15:04.804Z,95639.34
2023-01-27T04:20:06.821Z,95638.19
2023-01-27T04:25:11.610Z,95630.09
2023-01-27T04:30:14.131Z,95636.84
2023-01-27T04:35:15.643Z,95632.34
2023-01-27T04:40:17.257Z,95632.25
2023-01-27T04:45:18.761Z,95632.81
2023-01-27T04:50:20.221Z,95630.22
2023-01-27T04:55:21.656Z,95617.72
2023-01-27T05:00:23.207Z,95620.59
2023-01-27T05:05:25.010Z,95638.59
2023-01-27T05:10:26.485Z,95624.59
2023-01-27T05:15:29.223Z,95637.19
2023-01-27T05:20:30.856Z,95638.03
2023-01-27T05:25:32.290Z,95622.16
2023-01-27T05:30:33.855Z,95642.31
2023-01-27T05:35:35.434Z,95624.97
2023-01-27T05:40:36.936Z,95624.03
2023-01-27T05:45:38.419Z,95619.25
2023-01-27T05:50:39.897Z,95633.50
2023-01-27T05:55:43.571Z,95639.34
2023-01-27T06:00:45.486Z,95642.88
2023-01-27T06:05:55.430Z,95653.13
2023-01-27T06:10:58.761Z,95652.47
2023-01-27T06:16:02.669Z,95659.81
2023-01-27T06:21:06.687Z,95653.34
2023-01-27T06:26:10.952Z,95663.91
2023-01-27T06:31:20.825Z,95675.59
2023-01-27T06:36:22.745Z,95681.69
2023-01-27T06:41:24.271Z,95694.78
2023-01-27T06:46:26.062Z,95691.97
2023-01-27T06:51:27.587Z,95706.63
2023-01-27T06:56:29.066Z,95703.91
2023-01-27T07:01:30.637Z,95712.09
2023-01-27T07:06:32.201Z,95705.47
2023-01-27T07:11:33.741Z,95706.66
2023-01-27T07:16:35.262Z,95707.28
2023-01-27T07:21:36.805Z,95721.19
2023-01-27T07:26:38.583Z,95714.78
2023-01-27T07:31:40.307Z,95719.59
2023-01-27T07:36:41.841Z,95724.28
2023-01-27T07:41:43.351Z,95730.91
2023-01-27T07:46:49.572Z,95734.00
2023-01-27T07:51:51.141Z,95736.38
2023-01-27T07:56:52.651Z,95734.69
2023-01-27T08:01:54.341Z,95751.22
2023-01-27T08:06:55.843Z,95738.59
2023-01-27T08:11:57.352Z,95739.25
2023-01-27T08:16:58.898Z,95737.44
2023-01-27T08:22:00.434Z,95729.66
2023-01-27T08:27:01.910Z,95741.41
2023-01-27T08:32:03.557Z,95750.41
2023-01-27T08:37:06.300Z,95754.69
2023-01-27T08:42:07.832Z,95755.53
2023-01-27T08:47:09.297Z,95749.56
2023-01-27T08:52:10.820Z,95754.91
2023-01-27T08:57:12.292Z,95755.81
2023-01-27T09:02:13.751Z,95762.44
2023-01-27T09:07:15.290Z,95775.00
2023-01-27T09:12:16.985Z,95767.47
2023-01-27T09:17:18.540Z,95768.09
2023-01-27T09:22:20.120Z,95766.94
2023-01-27T09:27:37.088Z,95772.38
2023-01-27T09:32:41.096Z,95768.84
2023-01-27T09:37:56.358Z,95769.53
2023-01-27T09:43:19.037Z,95776.44
2023-01-27T09:48:39.319Z,95775.72
2023-01-27T09:53:53.061Z,95784.31
2023-01-27T09:59:33.027Z,95780.00
2023-01-27T10:04:59.177Z,95772.38
2023-01-27T10:10:13.040Z,95771.75
2023-01-27T10:15:43.973Z,95781.69
2023-01-27T10:21:21.426Z,95787.03
2023-01-27T10:26:42.147Z,95775.50
2023-01-27T10:31:53.070Z,95776.78
2023-01-27T10:37:06.779Z,95771.97
2023-01-27T10:42:17.380Z,95779.28
2023-01-27T10:47:40.611Z,95777.19
2023-01-27T10:52:56.885Z,95773.59
2023-01-27T10:58:03.491Z,95772.03
2023-01-27T11:03:12.579Z,95772.56
2023-01-27T11:08:25.555Z,95769.53
2023-01-27T11:13:30.624Z,95764.06
2023-01-27T11:18:36.019Z,95766.69
2023-01-27T11:23:43.584Z,95767.41
2023-01-27T11:29:16.497Z,95770.25
2023-01-27T11:34:55.781Z,95784.34
2023-01-27T11:39:57.431Z,95781.47
2023-01-27T11:45:00.745Z,95772.66
2023-01-27T11:50:04.308Z,95767.22
2023-01-27T11:55:16.123Z,95770.53
2023-01-27T12:00:38.409Z,95754.94
2023-01-27T12:05:48.853Z,95748.75
2023-01-27T12:10:50.474Z,95752.38
2023-01-27T12:15:58.870Z,95753.53
2023-01-27T12:21:04.831Z,95751.84
2023-01-27T12:26:11.315Z,95742.31
2023-01-27T12:31:12.816Z,95747.25
2023-01-27T12:36:17.781Z,95742.94
2023-01-27T12:41:31.011Z,95741.69
2023-01-27T12:46:32.739Z,95743.56
2023-01-27T12:51:41.831Z,95735.31
2023-01-27T12:56:43.603Z,95737.19
2023-01-27T13:02:01.747Z,95737.94
2023-01-27T13:07:12.411Z,95729.78
2023-01-27T13:12:34.317Z,95745.03
2023-01-27T13:17:53.762Z,95742.78
2023-01-27T13:23:05.835Z,95747.06
2023-01-27T13:28:08.497Z,95749.00
2023-01-27T13:33:30.410Z,95742.97
2023-01-27T13:39:06.856Z,95751.38
2023-01-27T13:44:38.883Z,95752.78
2023-01-27T13:50:07.121Z,95750.25
2023-01-27T13:55:14.062Z,95757.13
2023-01-27T14:00:54.248Z,95761.28
2023-01-27T14:06:07.770Z,95758.88
2023-01-27T14:11:12.227Z,95753.50
2023-01-27T14:16:25.012Z,95750.41
2023-01-27T14:21:48.498Z,95764.22
2023-01-27T14:27:12.853Z,95767.88
2023-01-27T14:32:33.353Z,95768.28
2023-01-27T14:37:53.810Z,95771.97
2023-01-27T14:43:06.805Z,95776.13
2023-01-27T14:48:20.359Z,95782.44
2023-01-27T14:53:36.955Z,95784.31
2023-01-27T14:58:55.271Z,95794.47
2023-01-27T15:04:23.408Z,95794.19
2023-01-27T15:09:40.652Z,95792.06
2023-01-27T15:15:21.042Z,95798.66
2023-01-27T15:20:33.950Z,95802.44
2023-01-27T15:25:50.043Z,95811.34
2023-01-27T15:31:15.930Z,95812.88
2023-01-27T15:36:27.929Z,95814.59
2023-01-27T15:41:29.498Z,95817.22
2023-01-27T15:46:36.515Z,95808.19
2023-01-27T15:51:38.433Z,95817.63
2023-01-27T15:56:48.110Z,95836.06
2023-01-27T16:01:59.374Z,95840.91
2023-01-27T16:07:04.557Z,95837.22
2023-01-27T16:12:24.565Z,95840.47
2023-01-27T16:17:26.212Z,95848.41
2023-01-27T16:22:32.027Z,95850.84
2023-01-27T16:27:47.786Z,95845.50
2023-01-27T16:33:14.754Z,95852.19
2023-01-27T16:38:20.541Z,95852.63
2023-01-27T16:43:33.374Z,95856.06
2023-01-27T16:48:44.900Z,95853.44
2023-01-27T16:53:52.193Z,95859.13
2023-01-27T16:59:01.775Z,95857.41
2023-01-27T17:04:19.177Z,95865.44
2023-01-27T17:09:25.636Z,95860.50
2023-01-27T17:14:32.931Z,95868.09
2023-01-27T17:19:36.654Z,95875.53
2023-01-27T17:24:45.199Z,95880.25
2023-01-27T17:29:49.462Z,95882.03
2023-01-27T17:34:53.707Z,95884.03
2023-01-27T17:39:59.214Z,95888.22
2023-01-27T17:45:22.584Z,95883.41
2023-01-27T17:50:27.305Z,95890.81
2023-01-27T17:55:30.180Z,95892.63
2023-01-27T18:00:38.130Z,95894.91
2023-01-27T18:05:44.135Z,95896.06
2023-01-27T18:10:46.521Z,95897.81
2023-01-27T18:16:02.804Z,95906.41
2023-01-27T18:21:04.313Z,95901.81
2023-01-27T18:26:15.339Z,95898.59
2023-01-27T18:31:24.526Z,95913.91
2023-01-27T18:36:30.266Z,95934.47
2023-01-27T18:41:31.876Z,95934.16
2023-01-27T18:46:33.396Z,95930.53
2023-01-27T18:51:34.897Z,95933.00
2023-01-27T18:56:36.425Z,95946.19
2023-01-27T19:01:38.020Z,95942.63
2023-01-27T19:06:39.587Z,95950.56
2023-01-27T19:11:41.097Z,95947.78
2023-01-27T19:16:42.618Z,95946.88
2023-01-27T19:21:44.149Z,95941.06
2023-01-27T19:26:45.807Z,95938.16
2023-01-27T19:31:47.359Z,95946.44
2023-01-27T19:36:48.941Z,95954.72
2023-01-27T19:41:50.411Z,95952.69
2023-01-27T19:46:51.957Z,95953.94
2023-01-27T19:51:53.459Z,95951.41
2023-01-27T19:56:54.906Z,95952.19
2023-01-27T20:01:56.498Z,95951.66
2023-01-27T20:06:58.031Z,95962.44
2023-01-27T20:11:59.584Z,95957.84
2023-01-27T20:17:01.075Z,95962.44
2023-01-27T20:22:02.565Z,95956.66
2023-01-27T20:27:04.169Z,95967.75
2023-01-27T20:32:05.872Z,95964.00
2023-01-27T20:37:07.414Z,95960.75
2023-01-27T20:42:09.166Z,95958.50
2023-01-27T20:47:13.956Z,95960.19
2023-01-27T20:52:15.407Z,95966.75
2023-01-27T20:57:16.853Z,95968.44
2023-01-27T21:02:18.393Z,95970.84
2023-01-27T21:07:21.474Z,95971.69
2023-01-27T21:12:22.952Z,95981.88
2023-01-27T21:17:24.426Z,95980.75
2023-01-27T21:22:25.870Z,95974.59
2023-01-27T21:27:27.330Z,95967.75
2023-01-27T21:32:28.781Z,95963.66
2023-01-27T21:37:30.260Z,95967.03
2023-01-27T21:42:31.750Z,95964.22
2023-01-27T21:47:33.188Z,95966.34
2023-01-27T21:52:38.137Z,95973.44
2023-01-27T21:57:40.388Z,95966.44
2023-01-27T22:02:42.644Z,95967.38
2023-01-27T22:07:44.180Z,95966.63
2023-01-27T22:12:46.420Z,95965.06
2023-01-27T22:17:48.027Z,95976.34
2023-01-27T22:22:49.597Z,95971.75
2023-01-27T22:28:00.288Z,95971.03
2023-01-27T22:33:01.766Z,95977.13
2023-01-27T22:38:03.281Z,95980.69
2023-01-27T22:43:04.719Z,95982.75
2023-01-27T22:48:06.203Z,95977.38
2023-01-27T22:53:07.738Z,95970.00
2023-01-27T22:58:09.306Z,95976.78
2023-01-27T23:03:10.758Z,95979.34
2023-01-27T23:08:12.262Z,95977.00
2023-01-27T23:13:14.273Z,95979.97
2023-01-27T23:18:15.740Z,95982.97
2023-01-27T23:23:18.054Z,95979.44
2023-01-27T23:28:19.571Z,95977.22
2023-01-27T23:33:21.336Z,95983.09
2023-01-27T23:38:32.585Z,95985.44
2023-01-27T23:43:35.411Z,95989.59
2023-01-27T23:48:36.932Z,95988.88
2023-01-27T23:53:38.469Z,95986.53
2023-01-27T23:58:39.999Z,95987.81
